Terminal Aerodrome Forecast
Issued by NWS Omaha/Valley, NE

Home | Current Version | Previous Version | Graphics & Text | Print | Product List | Glossary On
Versions: 1 2 3 4 5 6 7 8 9 10 11 12 13 14 15 16 17 18 19 20 21 22 23 24 25 26 27 28 29 30 31 32
884
FTUS43 KOAX 282010 AAA
TAFOFK
TAF AMD
KOFK 282010Z 2820/2918 32010KT P6SM SCT015 OVC025
     FM282300 33005KT P6SM OVC025
     FM290800 36005KT P6SM OVC007=

USA.gov is the U.S. government's official web portal to all federal, state and local government web resources and services.